sensor_id;sensor_type;location;lat;lon;timestamp;P1;durP1;ratioP1;P2;durP2;ratioP2
79249;SDS011;68679;51.030;7.584;2024-02-04T00:01:09;8.00;;;4.13;;
79249;SDS011;68679;51.030;7.584;2024-02-04T00:03:35;9.63;;;4.03;;
79249;SDS011;68679;51.030;7.584;2024-02-04T00:06:00;5.90;;;3.50;;
79249;SDS011;68679;51.030;7.584;2024-02-04T00:08:25;6.85;;;4.13;;
79249;SDS011;68679;51.030;7.584;2024-02-04T00:10:51;8.67;;;4.27;;
79249;SDS011;68679;51.030;7.584;2024-02-04T00:13:16;6.37;;;3.93;;
79249;SDS011;68679;51.030;7.584;2024-02-04T00:15:41;8.40;;;4.27;;
79249;SDS011;68679;51.030;7.584;2024-02-04T00:18:06;8.47;;;4.30;;
79249;SDS011;68679;51.030;7.584;2024-02-04T00:20:32;7.80;;;4.00;;
79249;SDS011;68679;51.030;7.584;2024-02-04T00:22:57;8.38;;;4.00;;
79249;SDS011;68679;51.030;7.584;2024-02-04T00:25:23;7.82;;;4.50;;
79249;SDS011;68679;51.030;7.584;2024-02-04T00:27:48;8.57;;;4.68;;
79249;SDS011;68679;51.030;7.584;2024-02-04T00:30:13;6.33;;;4.13;;
79249;SDS011;68679;51.030;7.584;2024-02-04T00:32:39;7.47;;;4.07;;
79249;SDS011;68679;51.030;7.584;2024-02-04T00:35:04;5.90;;;3.40;;
79249;SDS011;68679;51.030;7.584;2024-02-04T00:37:30;6.60;;;3.88;;
79249;SDS011;68679;51.030;7.584;2024-02-04T00:39:55;6.57;;;3.60;;
79249;SDS011;68679;51.030;7.584;2024-02-04T00:42:21;4.77;;;3.13;;
79249;SDS011;68679;51.030;7.584;2024-02-04T00:44:46;6.30;;;3.53;;
79249;SDS011;68679;51.030;7.584;2024-02-04T00:47:11;5.97;;;3.50;;
79249;SDS011;68679;51.030;7.584;2024-02-04T00:49:38;5.40;;;3.60;;
79249;SDS011;68679;51.030;7.584;2024-02-04T00:52:03;3.65;;;2.13;;
79249;SDS011;68679;51.030;7.584;2024-02-04T00:54:29;5.80;;;3.38;;
79249;SDS011;68679;51.030;7.584;2024-02-04T00:56:54;5.17;;;3.53;;
79249;SDS011;68679;51.030;7.584;2024-02-04T00:59:20;5.97;;;2.80;;
79249;SDS011;68679;51.030;7.584;2024-02-04T01:01:45;3.00;;;1.60;;
79249;SDS011;68679;51.030;7.584;2024-02-04T01:04:10;7.10;;;2.60;;
79249;SDS011;68679;51.030;7.584;2024-02-04T01:06:36;4.57;;;3.13;;
79249;SDS011;68679;51.030;7.584;2024-02-04T01:09:01;3.33;;;2.03;;
79249;SDS011;68679;51.030;7.584;2024-02-04T01:11:26;4.87;;;2.17;;
79249;SDS011;68679;51.030;7.584;2024-02-04T01:13:51;4.63;;;1.80;;
79249;SDS011;68679;51.030;7.584;2024-02-04T01:16:17;3.80;;;2.47;;
79249;SDS011;68679;51.030;7.584;2024-02-04T01:18:42;3.27;;;2.00;;
79249;SDS011;68679;51.030;7.584;2024-02-04T01:21:07;3.23;;;2.00;;
79249;SDS011;68679;51.030;7.584;2024-02-04T01:23:34;6.15;;;2.13;;
79249;SDS011;68679;51.030;7.584;2024-02-04T01:25:59;3.22;;;1.63;;
79249;SDS011;68679;51.030;7.584;2024-02-04T01:28:24;4.13;;;1.50;;
79249;SDS011;68679;51.030;7.584;2024-02-04T01:30:50;1.90;;;1.20;;
79249;SDS011;68679;51.030;7.584;2024-02-04T01:33:15;1.67;;;0.90;;
79249;SDS011;68679;51.030;7.584;2024-02-04T01:35:40;1.43;;;0.90;;
79249;SDS011;68679;51.030;7.584;2024-02-04T01:38:05;2.07;;;1.00;;
79249;SDS011;68679;51.030;7.584;2024-02-04T01:40:31;0.70;;;0.57;;
79249;SDS011;68679;51.030;7.584;2024-02-04T01:42:56;0.07;;;0.07;;
79249;SDS011;68679;51.030;7.584;2024-02-04T01:45:21;0.77;;;0.60;;
79249;SDS011;68679;51.030;7.584;2024-02-04T01:47:47;0.88;;;0.50;;
79249;SDS011;68679;51.030;7.584;2024-02-04T01:50:13;0.75;;;0.22;;
79249;SDS011;68679;51.030;7.584;2024-02-04T01:52:39;0.20;;;0.13;;
79249;SDS011;68679;51.030;7.584;2024-02-04T01:55:07;0.28;;;0.28;;
79249;SDS011;68679;51.030;7.584;2024-02-04T01:57:33;0.88;;;0.50;;
79249;SDS011;68679;51.030;7.584;2024-02-04T01:59:59;0.73;;;0.40;;
79249;SDS011;68679;51.030;7.584;2024-02-04T02:02:25;0.22;;;0.20;;
79249;SDS011;68679;51.030;7.584;2024-02-04T02:04:51;0.82;;;0.50;;
79249;SDS011;68679;51.030;7.584;2024-02-04T02:07:16;0.20;;;0.20;;
79249;SDS011;68679;51.030;7.584;2024-02-04T02:09:45;0.40;;;0.40;;
79249;SDS011;68679;51.030;7.584;2024-02-04T02:12:17;0.77;;;0.50;;
79249;SDS011;68679;51.030;7.584;2024-02-04T02:14:48;0.68;;;0.50;;
79249;SDS011;68679;51.030;7.584;2024-02-04T02:17:33;0.38;;;0.20;;
79249;SDS011;68679;51.030;7.584;2024-02-04T02:23:14;0.50;;;0.50;;
79249;SDS011;68679;51.030;7.584;2024-02-04T02:25:46;0.30;;;0.30;;
79249;SDS011;68679;51.030;7.584;2024-02-04T02:28:12;0.60;;;0.53;;
79249;SDS011;68679;51.030;7.584;2024-02-04T02:30:37;0.10;;;0.10;;
79249;SDS011;68679;51.030;7.584;2024-02-04T02:33:03;0.30;;;0.30;;
79249;SDS011;68679;51.030;7.584;2024-02-04T02:35:31;0.20;;;0.15;;
79249;SDS011;68679;51.030;7.584;2024-02-04T02:37:59;0.38;;;0.30;;
79249;SDS011;68679;51.030;7.584;2024-02-04T02:40:36;0.45;;;0.40;;
79249;SDS011;68679;51.030;7.584;2024-02-04T02:43:04;0.30;;;0.30;;
79249;SDS011;68679;51.030;7.584;2024-02-04T02:45:31;0.77;;;0.52;;
79249;SDS011;68679;51.030;7.584;2024-02-04T02:47:57;0.20;;;0.20;;
79249;SDS011;68679;51.030;7.584;2024-02-04T02:50:23;0.80;;;0.70;;
79249;SDS011;68679;51.030;7.584;2024-02-04T02:52:49;0.35;;;0.35;;
79249;SDS011;68679;51.030;7.584;2024-02-04T02:55:14;0.30;;;0.20;;
79249;SDS011;68679;51.030;7.584;2024-02-04T02:57:40;0.45;;;0.30;;
79249;SDS011;68679;51.030;7.584;2024-02-04T03:00:05;0.20;;;0.20;;
79249;SDS011;68679;51.030;7.584;2024-02-04T03:02:31;0.43;;;0.32;;
79249;SDS011;68679;51.030;7.584;2024-02-04T03:04:57;0.20;;;0.20;;
79249;SDS011;68679;51.030;7.584;2024-02-04T03:07:22;0.63;;;0.30;;
79249;SDS011;68679;51.030;7.584;2024-02-04T03:09:48;0.50;;;0.30;;
79249;SDS011;68679;51.030;7.584;2024-02-04T03:12:13;0.30;;;0.23;;
79249;SDS011;68679;51.030;7.584;2024-02-04T03:14:38;0.83;;;0.53;;
79249;SDS011;68679;51.030;7.584;2024-02-04T03:17:03;0.60;;;0.60;;
79249;SDS011;68679;51.030;7.584;2024-02-04T03:19:29;0.68;;;0.47;;
79249;SDS011;68679;51.030;7.584;2024-02-04T03:21:54;0.77;;;0.50;;
79249;SDS011;68679;51.030;7.584;2024-02-04T03:24:19;0.93;;;0.63;;
79249;SDS011;68679;51.030;7.584;2024-02-04T03:26:45;0.97;;;0.50;;
79249;SDS011;68679;51.030;7.584;2024-02-04T03:29:10;0.90;;;0.47;;
79249;SDS011;68679;51.030;7.584;2024-02-04T03:31:35;1.13;;;0.70;;
79249;SDS011;68679;51.030;7.584;2024-02-04T03:34:00;0.27;;;0.27;;
79249;SDS011;68679;51.030;7.584;2024-02-04T03:36:27;1.48;;;0.77;;
79249;SDS011;68679;51.030;7.584;2024-02-04T03:38:52;1.90;;;1.10;;
79249;SDS011;68679;51.030;7.584;2024-02-04T03:41:18;1.63;;;1.08;;
79249;SDS011;68679;51.030;7.584;2024-02-04T03:43:43;1.02;;;0.73;;
79249;SDS011;68679;51.030;7.584;2024-02-04T03:46:13;2.97;;;1.08;;
79249;SDS011;68679;51.030;7.584;2024-02-04T03:48:42;1.67;;;1.02;;
79249;SDS011;68679;51.030;7.584;2024-02-04T03:51:08;1.95;;;1.15;;
79249;SDS011;68679;51.030;7.584;2024-02-04T03:53:33;2.17;;;1.45;;
79249;SDS011;68679;51.030;7.584;2024-02-04T03:55:58;3.05;;;1.15;;
79249;SDS011;68679;51.030;7.584;2024-02-04T03:58:24;0.40;;;0.40;;
79249;SDS011;68679;51.030;7.584;2024-02-04T04:00:54;0.93;;;0.73;;
79249;SDS011;68679;51.030;7.584;2024-02-04T04:03:21;2.67;;;1.27;;
79249;SDS011;68679;51.030;7.584;2024-02-04T04:05:46;2.23;;;1.30;;
79249;SDS011;68679;51.030;7.584;2024-02-04T04:08:11;3.20;;;1.57;;
79249;SDS011;68679;51.030;7.584;2024-02-04T04:10:38;2.05;;;1.23;;
79249;SDS011;68679;51.030;7.584;2024-02-04T04:13:03;1.80;;;0.90;;
79249;SDS011;68679;51.030;7.584;2024-02-04T04:15:28;2.90;;;1.30;;
79249;SDS011;68679;51.030;7.584;2024-02-04T04:17:53;2.30;;;1.60;;
79249;SDS011;68679;51.030;7.584;2024-02-04T04:20:19;3.30;;;1.77;;
79249;SDS011;68679;51.030;7.584;2024-02-04T04:22:44;3.40;;;1.97;;
79249;SDS011;68679;51.030;7.584;2024-02-04T04:25:09;3.03;;;1.70;;
79249;SDS011;68679;51.030;7.584;2024-02-04T04:27:34;3.07;;;1.73;;
79249;SDS011;68679;51.030;7.584;2024-02-04T04:30:00;2.80;;;1.73;;
79249;SDS011;68679;51.030;7.584;2024-02-04T04:32:25;3.13;;;1.70;;
79249;SDS011;68679;51.030;7.584;2024-02-04T04:34:50;5.40;;;2.87;;
79249;SDS011;68679;51.030;7.584;2024-02-04T04:37:15;3.10;;;1.50;;
79249;SDS011;68679;51.030;7.584;2024-02-04T04:39:41;5.23;;;3.00;;
79249;SDS011;68679;51.030;7.584;2024-02-04T04:42:06;6.53;;;3.90;;
79249;SDS011;68679;51.030;7.584;2024-02-04T04:44:31;6.07;;;3.33;;
79249;SDS011;68679;51.030;7.584;2024-02-04T04:46:56;7.83;;;3.83;;
79249;SDS011;68679;51.030;7.584;2024-02-04T04:49:22;7.90;;;4.00;;
79249;SDS011;68679;51.030;7.584;2024-02-04T04:51:47;0.33;;;0.33;;
79249;SDS011;68679;51.030;7.584;2024-02-04T04:54:12;6.70;;;3.93;;
79249;SDS011;68679;51.030;7.584;2024-02-04T04:56:38;8.50;;;4.73;;
79249;SDS011;68679;51.030;7.584;2024-02-04T04:59:04;7.82;;;4.75;;
79249;SDS011;68679;51.030;7.584;2024-02-04T05:01:30;3.40;;;1.98;;
79249;SDS011;68679;51.030;7.584;2024-02-04T05:03:56;8.60;;;4.80;;
79249;SDS011;68679;51.030;7.584;2024-02-04T05:06:21;9.37;;;3.90;;
79249;SDS011;68679;51.030;7.584;2024-02-04T05:08:46;7.70;;;4.23;;
79249;SDS011;68679;51.030;7.584;2024-02-04T05:11:11;7.23;;;3.77;;
79249;SDS011;68679;51.030;7.584;2024-02-04T05:13:38;5.83;;;2.87;;
79249;SDS011;68679;51.030;7.584;2024-02-04T05:16:04;3.70;;;2.40;;
79249;SDS011;68679;51.030;7.584;2024-02-04T05:18:30;7.20;;;3.57;;
79249;SDS011;68679;51.030;7.584;2024-02-04T05:20:55;7.17;;;3.67;;
79249;SDS011;68679;51.030;7.584;2024-02-04T05:23:21;5.40;;;3.20;;
79249;SDS011;68679;51.030;7.584;2024-02-04T05:25:47;5.28;;;3.05;;
79249;SDS011;68679;51.030;7.584;2024-02-04T05:28:12;6.83;;;3.43;;
79249;SDS011;68679;51.030;7.584;2024-02-04T05:30:37;6.27;;;3.47;;
79249;SDS011;68679;51.030;7.584;2024-02-04T05:33:02;7.10;;;4.07;;
79249;SDS011;68679;51.030;7.584;2024-02-04T05:35:28;3.25;;;1.98;;
79249;SDS011;68679;51.030;7.584;2024-02-04T05:37:53;7.43;;;3.17;;
79249;SDS011;68679;51.030;7.584;2024-02-04T05:40:18;5.87;;;2.93;;
79249;SDS011;68679;51.030;7.584;2024-02-04T05:42:45;5.75;;;2.22;;
79249;SDS011;68679;51.030;7.584;2024-02-04T05:45:10;9.90;;;3.67;;
79249;SDS011;68679;51.030;7.584;2024-02-04T05:47:36;4.33;;;2.57;;
79249;SDS011;68679;51.030;7.584;2024-02-04T05:50:01;9.70;;;5.20;;
79249;SDS011;68679;51.030;7.584;2024-02-04T05:52:27;3.73;;;2.43;;
79249;SDS011;68679;51.030;7.584;2024-02-04T05:54:52;7.23;;;3.73;;
79249;SDS011;68679;51.030;7.584;2024-02-04T05:57:17;6.17;;;2.97;;
79249;SDS011;68679;51.030;7.584;2024-02-04T05:59:42;8.63;;;4.07;;
79249;SDS011;68679;51.030;7.584;2024-02-04T06:02:09;7.03;;;3.80;;
79249;SDS011;68679;51.030;7.584;2024-02-04T06:04:34;4.13;;;2.50;;
79249;SDS011;68679;51.030;7.584;2024-02-04T06:07:01;9.60;;;4.82;;
79249;SDS011;68679;51.030;7.584;2024-02-04T06:09:26;8.73;;;4.37;;
79249;SDS011;68679;51.030;7.584;2024-02-04T06:11:52;7.47;;;4.00;;
79249;SDS011;68679;51.030;7.584;2024-02-04T06:14:17;14.60;;;3.27;;
79249;SDS011;68679;51.030;7.584;2024-02-04T06:16:42;2.77;;;1.80;;
79249;SDS011;68679;51.030;7.584;2024-02-04T06:19:07;8.07;;;4.27;;
79249;SDS011;68679;51.030;7.584;2024-02-04T06:21:34;7.35;;;3.65;;
79249;SDS011;68679;51.030;7.584;2024-02-04T06:23:59;9.73;;;4.30;;
79249;SDS011;68679;51.030;7.584;2024-02-04T06:26:24;8.17;;;3.97;;
79249;SDS011;68679;51.030;7.584;2024-02-04T06:28:50;6.87;;;4.20;;
79249;SDS011;68679;51.030;7.584;2024-02-04T06:31:16;7.88;;;4.78;;
79249;SDS011;68679;51.030;7.584;2024-02-04T06:33:41;7.55;;;3.15;;
79249;SDS011;68679;51.030;7.584;2024-02-04T06:36:09;10.73;;;5.57;;
79249;SDS011;68679;51.030;7.584;2024-02-04T06:38:35;5.57;;;2.90;;
79249;SDS011;68679;51.030;7.584;2024-02-04T06:41:00;8.18;;;4.07;;
79249;SDS011;68679;51.030;7.584;2024-02-04T06:43:26;8.00;;;3.97;;
79249;SDS011;68679;51.030;7.584;2024-02-04T06:45:51;12.70;;;6.07;;
79249;SDS011;68679;51.030;7.584;2024-02-04T06:48:18;11.80;;;5.67;;
79249;SDS011;68679;51.030;7.584;2024-02-04T06:50:44;10.15;;;5.25;;
79249;SDS011;68679;51.030;7.584;2024-02-04T06:53:10;6.63;;;3.67;;
79249;SDS011;68679;51.030;7.584;2024-02-04T06:55:36;4.93;;;2.60;;
79249;SDS011;68679;51.030;7.584;2024-02-04T06:58:01;4.50;;;2.43;;
79249;SDS011;68679;51.030;7.584;2024-02-04T07:00:26;5.03;;;3.03;;
79249;SDS011;68679;51.030;7.584;2024-02-04T07:02:52;6.93;;;3.42;;
79249;SDS011;68679;51.030;7.584;2024-02-04T07:05:17;10.37;;;3.13;;
79249;SDS011;68679;51.030;7.584;2024-02-04T07:07:42;9.32;;;3.88;;
79249;SDS011;68679;51.030;7.584;2024-02-04T07:10:08;7.47;;;2.93;;
79249;SDS011;68679;51.030;7.584;2024-02-04T07:12:33;6.03;;;2.67;;
79249;SDS011;68679;51.030;7.584;2024-02-04T07:14:59;1.93;;;1.10;;
79249;SDS011;68679;51.030;7.584;2024-02-04T07:17:24;3.03;;;1.65;;
79249;SDS011;68679;51.030;7.584;2024-02-04T07:19:49;4.97;;;2.72;;
79249;SDS011;68679;51.030;7.584;2024-02-04T07:22:15;5.43;;;2.93;;
79249;SDS011;68679;51.030;7.584;2024-02-04T07:24:40;6.55;;;3.97;;
79249;SDS011;68679;51.030;7.584;2024-02-04T07:27:06;2.37;;;1.37;;
79249;SDS011;68679;51.030;7.584;2024-02-04T07:29:31;4.00;;;2.27;;
79249;SDS011;68679;51.030;7.584;2024-02-04T07:31:56;5.23;;;2.63;;
79249;SDS011;68679;51.030;7.584;2024-02-04T07:34:23;5.20;;;2.13;;
79249;SDS011;68679;51.030;7.584;2024-02-04T07:36:48;5.77;;;3.00;;
79249;SDS011;68679;51.030;7.584;2024-02-04T07:39:13;5.30;;;2.23;;
79249;SDS011;68679;51.030;7.584;2024-02-04T07:41:39;2.43;;;1.30;;
79249;SDS011;68679;51.030;7.584;2024-02-04T07:44:04;2.97;;;1.10;;
79249;SDS011;68679;51.030;7.584;2024-02-04T07:46:29;3.30;;;1.17;;
79249;SDS011;68679;51.030;7.584;2024-02-04T07:48:55;1.67;;;0.97;;
79249;SDS011;68679;51.030;7.584;2024-02-04T07:51:20;2.50;;;1.50;;
79249;SDS011;68679;51.030;7.584;2024-02-04T07:53:46;2.67;;;0.93;;
79249;SDS011;68679;51.030;7.584;2024-02-04T07:56:11;1.57;;;0.80;;
79249;SDS011;68679;51.030;7.584;2024-02-04T07:58:36;3.60;;;1.10;;
79249;SDS011;68679;51.030;7.584;2024-02-04T08:01:02;3.43;;;1.40;;
79249;SDS011;68679;51.030;7.584;2024-02-04T08:03:27;0.52;;;0.38;;
79249;SDS011;68679;51.030;7.584;2024-02-04T08:05:52;0.57;;;0.30;;
79249;SDS011;68679;51.030;7.584;2024-02-04T08:08:18;2.20;;;1.20;;
79249;SDS011;68679;51.030;7.584;2024-02-04T08:10:44;2.10;;;1.00;;
79249;SDS011;68679;51.030;7.584;2024-02-04T08:13:09;1.90;;;0.90;;
79249;SDS011;68679;51.030;7.584;2024-02-04T08:15:34;0.90;;;0.63;;
79249;SDS011;68679;51.030;7.584;2024-02-04T08:18:00;1.80;;;1.00;;
79249;SDS011;68679;51.030;7.584;2024-02-04T08:20:25;1.15;;;0.80;;
79249;SDS011;68679;51.030;7.584;2024-02-04T08:22:51;5.03;;;1.67;;
79249;SDS011;68679;51.030;7.584;2024-02-04T08:25:17;0.65;;;0.50;;
79249;SDS011;68679;51.030;7.584;2024-02-04T08:27:42;0.67;;;0.40;;
79249;SDS011;68679;51.030;7.584;2024-02-04T08:30:07;1.67;;;0.73;;
79249;SDS011;68679;51.030;7.584;2024-02-04T08:32:34;0.88;;;0.68;;
79249;SDS011;68679;51.030;7.584;2024-02-04T08:35:00;1.60;;;0.60;;
79249;SDS011;68679;51.030;7.584;2024-02-04T08:37:25;0.57;;;0.50;;
79249;SDS011;68679;51.030;7.584;2024-02-04T08:39:50;0.30;;;0.20;;
79249;SDS011;68679;51.030;7.584;2024-02-04T08:42:15;0.67;;;0.50;;
79249;SDS011;68679;51.030;7.584;2024-02-04T08:44:41;0.20;;;0.20;;
79249;SDS011;68679;51.030;7.584;2024-02-04T08:47:06;0.75;;;0.50;;
79249;SDS011;68679;51.030;7.584;2024-02-04T08:49:35;0.30;;;0.22;;
79249;SDS011;68679;51.030;7.584;2024-02-04T08:52:00;0.60;;;0.60;;
79249;SDS011;68679;51.030;7.584;2024-02-04T08:54:26;0.90;;;0.55;;
79249;SDS011;68679;51.030;7.584;2024-02-04T08:56:51;1.27;;;0.57;;
79249;SDS011;68679;51.030;7.584;2024-02-04T08:59:17;1.57;;;0.73;;
79249;SDS011;68679;51.030;7.584;2024-02-04T09:01:42;0.10;;;0.07;;
79249;SDS011;68679;51.030;7.584;2024-02-04T09:04:07;0.70;;;0.50;;
79249;SDS011;68679;51.030;7.584;2024-02-04T09:06:33;1.08;;;0.60;;
79249;SDS011;68679;51.030;7.584;2024-02-04T09:08:58;1.03;;;0.70;;
79249;SDS011;68679;51.030;7.584;2024-02-04T09:11:23;0.67;;;0.67;;
79249;SDS011;68679;51.030;7.584;2024-02-04T09:13:49;0.93;;;0.52;;
79249;SDS011;68679;51.030;7.584;2024-02-04T09:16:15;1.13;;;0.63;;
79249;SDS011;68679;51.030;7.584;2024-02-04T09:18:40;0.52;;;0.32;;
79249;SDS011;68679;51.030;7.584;2024-02-04T09:21:06;1.17;;;0.70;;
79249;SDS011;68679;51.030;7.584;2024-02-04T09:23:31;1.30;;;0.70;;
79249;SDS011;68679;51.030;7.584;2024-02-04T09:25:57;3.33;;;2.03;;
79249;SDS011;68679;51.030;7.584;2024-02-04T09:28:22;1.57;;;1.00;;
79249;SDS011;68679;51.030;7.584;2024-02-04T09:30:47;0.97;;;0.40;;
79249;SDS011;68679;51.030;7.584;2024-02-04T09:33:13;3.10;;;2.03;;
79249;SDS011;68679;51.030;7.584;2024-02-04T09:35:39;1.63;;;0.98;;
79249;SDS011;68679;51.030;7.584;2024-02-04T09:38:05;3.20;;;1.65;;
79249;SDS011;68679;51.030;7.584;2024-02-04T09:40:30;3.28;;;1.45;;
79249;SDS011;68679;51.030;7.584;2024-02-04T09:42:57;1.38;;;0.80;;
79249;SDS011;68679;51.030;7.584;2024-02-04T09:45:24;0.95;;;0.40;;
79249;SDS011;68679;51.030;7.584;2024-02-04T09:47:49;2.80;;;1.52;;
79249;SDS011;68679;51.030;7.584;2024-02-04T09:50:17;1.90;;;1.00;;
79249;SDS011;68679;51.030;7.584;2024-02-04T09:52:44;1.20;;;0.77;;
79249;SDS011;68679;51.030;7.584;2024-02-04T09:55:14;2.22;;;1.33;;
79249;SDS011;68679;51.030;7.584;2024-02-04T09:57:41;1.58;;;1.02;;
79249;SDS011;68679;51.030;7.584;2024-02-04T10:00:07;5.23;;;2.30;;
79249;SDS011;68679;51.030;7.584;2024-02-04T10:02:35;2.78;;;1.40;;
79249;SDS011;68679;51.030;7.584;2024-02-04T10:05:01;1.13;;;0.68;;
79249;SDS011;68679;51.030;7.584;2024-02-04T10:07:27;2.00;;;1.02;;
79249;SDS011;68679;51.030;7.584;2024-02-04T10:09:53;3.40;;;1.00;;
79249;SDS011;68679;51.030;7.584;2024-02-04T10:12:18;1.80;;;1.10;;
79249;SDS011;68679;51.030;7.584;2024-02-04T10:14:43;2.30;;;1.30;;
79249;SDS011;68679;51.030;7.584;2024-02-04T10:17:09;1.83;;;0.93;;
79249;SDS011;68679;51.030;7.584;2024-02-04T10:19:34;1.60;;;0.80;;
79249;SDS011;68679;51.030;7.584;2024-02-04T10:22:00;0.70;;;0.57;;
79249;SDS011;68679;51.030;7.584;2024-02-04T10:24:26;0.45;;;0.38;;
79249;SDS011;68679;51.030;7.584;2024-02-04T10:26:52;1.08;;;0.63;;
79249;SDS011;68679;51.030;7.584;2024-02-04T10:29:19;1.90;;;0.93;;
79249;SDS011;68679;51.030;7.584;2024-02-04T10:31:44;4.33;;;1.67;;
79249;SDS011;68679;51.030;7.584;2024-02-04T10:34:09;3.23;;;0.97;;
79249;SDS011;68679;51.030;7.584;2024-02-04T10:36:35;1.20;;;0.80;;
79249;SDS011;68679;51.030;7.584;2024-02-04T10:39:00;3.33;;;1.23;;
79249;SDS011;68679;51.030;7.584;2024-02-04T10:41:25;2.37;;;1.27;;
79249;SDS011;68679;51.030;7.584;2024-02-04T10:43:54;2.40;;;1.48;;
79249;SDS011;68679;51.030;7.584;2024-02-04T10:46:19;1.00;;;0.70;;
79249;SDS011;68679;51.030;7.584;2024-02-04T10:48:57;2.13;;;1.23;;
79249;SDS011;68679;51.030;7.584;2024-02-04T10:51:25;3.22;;;1.50;;
79249;SDS011;68679;51.030;7.584;2024-02-04T10:53:51;2.10;;;0.75;;
79249;SDS011;68679;51.030;7.584;2024-02-04T10:56:21;0.85;;;0.50;;
79249;SDS011;68679;51.030;7.584;2024-02-04T10:58:54;1.67;;;0.88;;
79249;SDS011;68679;51.030;7.584;2024-02-04T11:01:25;1.70;;;0.88;;
79249;SDS011;68679;51.030;7.584;2024-02-04T11:03:51;2.35;;;1.20;;
79249;SDS011;68679;51.030;7.584;2024-02-04T11:06:18;3.00;;;1.50;;
79249;SDS011;68679;51.030;7.584;2024-02-04T11:08:45;4.45;;;2.13;;
79249;SDS011;68679;51.030;7.584;2024-02-04T11:11:11;2.50;;;0.90;;
79249;SDS011;68679;51.030;7.584;2024-02-04T11:13:37;1.38;;;1.10;;
79249;SDS011;68679;51.030;7.584;2024-02-04T11:16:06;1.50;;;1.13;;
79249;SDS011;68679;51.030;7.584;2024-02-04T11:21:42;1.35;;;0.73;;
79249;SDS011;68679;51.030;7.584;2024-02-04T11:24:28;2.38;;;0.88;;
79249;SDS011;68679;51.030;7.584;2024-02-04T11:27:09;1.88;;;1.08;;
79249;SDS011;68679;51.030;7.584;2024-02-04T11:29:35;3.95;;;1.50;;
79249;SDS011;68679;51.030;7.584;2024-02-04T11:32:01;0.88;;;0.57;;
79249;SDS011;68679;51.030;7.584;2024-02-04T11:34:27;2.33;;;1.20;;
79249;SDS011;68679;51.030;7.584;2024-02-04T11:36:52;3.33;;;1.50;;
79249;SDS011;68679;51.030;7.584;2024-02-04T11:39:18;0.73;;;0.43;;
79249;SDS011;68679;51.030;7.584;2024-02-04T11:41:47;1.25;;;0.70;;
79249;SDS011;68679;51.030;7.584;2024-02-04T11:44:23;2.13;;;1.10;;
79249;SDS011;68679;51.030;7.584;2024-02-04T11:46:49;1.23;;;0.70;;
79249;SDS011;68679;51.030;7.584;2024-02-04T11:49:16;0.80;;;0.57;;
79249;SDS011;68679;51.030;7.584;2024-02-04T11:51:50;1.15;;;0.65;;
79249;SDS011;68679;51.030;7.584;2024-02-04T11:54:16;0.95;;;0.57;;
79249;SDS011;68679;51.030;7.584;2024-02-04T11:56:44;0.93;;;0.68;;
79249;SDS011;68679;51.030;7.584;2024-02-04T11:59:11;1.02;;;0.50;;
79249;SDS011;68679;51.030;7.584;2024-02-04T12:01:37;0.43;;;0.30;;
79249;SDS011;68679;51.030;7.584;2024-02-04T12:04:10;2.03;;;1.10;;
79249;SDS011;68679;51.030;7.584;2024-02-04T12:06:37;0.47;;;0.38;;
79249;SDS011;68679;51.030;7.584;2024-02-04T12:09:03;1.40;;;0.80;;
79249;SDS011;68679;51.030;7.584;2024-02-04T12:11:29;0.57;;;0.40;;
79249;SDS011;68679;51.030;7.584;2024-02-04T12:13:55;0.63;;;0.45;;
79249;SDS011;68679;51.030;7.584;2024-02-04T12:16:21;0.35;;;0.30;;
79249;SDS011;68679;51.030;7.584;2024-02-04T12:18:47;0.57;;;0.40;;
79249;SDS011;68679;51.030;7.584;2024-02-04T12:21:14;2.00;;;0.40;;
79249;SDS011;68679;51.030;7.584;2024-02-04T12:23:40;0.70;;;0.45;;
79249;SDS011;68679;51.030;7.584;2024-02-04T12:26:05;0.98;;;0.60;;
79249;SDS011;68679;51.030;7.584;2024-02-04T12:28:30;1.00;;;0.60;;
79249;SDS011;68679;51.030;7.584;2024-02-04T12:30:56;1.13;;;0.80;;
79249;SDS011;68679;51.030;7.584;2024-02-04T12:33:23;0.60;;;0.40;;
79249;SDS011;68679;51.030;7.584;2024-02-04T12:35:49;2.57;;;1.03;;
79249;SDS011;68679;51.030;7.584;2024-02-04T12:38:17;3.05;;;0.82;;
79249;SDS011;68679;51.030;7.584;2024-02-04T12:40:42;0.85;;;0.60;;
79249;SDS011;68679;51.030;7.584;2024-02-04T12:43:10;1.27;;;0.65;;
79249;SDS011;68679;51.030;7.584;2024-02-04T12:45:36;0.95;;;0.80;;
79249;SDS011;68679;51.030;7.584;2024-02-04T12:48:01;1.00;;;0.40;;
79249;SDS011;68679;51.030;7.584;2024-02-04T12:50:27;3.08;;;0.82;;
79249;SDS011;68679;51.030;7.584;2024-02-04T12:53:06;0.73;;;0.50;;
79249;SDS011;68679;51.030;7.584;2024-02-04T12:55:33;0.77;;;0.45;;
79249;SDS011;68679;51.030;7.584;2024-02-04T12:58:04;1.30;;;0.60;;
79249;SDS011;68679;51.030;7.584;2024-02-04T13:00:31;1.60;;;0.90;;
79249;SDS011;68679;51.030;7.584;2024-02-04T13:02:57;0.85;;;0.30;;
79249;SDS011;68679;51.030;7.584;2024-02-04T13:05:24;1.10;;;0.60;;
79249;SDS011;68679;51.030;7.584;2024-02-04T13:07:54;0.98;;;0.68;;
79249;SDS011;68679;51.030;7.584;2024-02-04T13:10:25;2.00;;;0.60;;
79249;SDS011;68679;51.030;7.584;2024-02-04T13:12:58;0.47;;;0.40;;
79249;SDS011;68679;51.030;7.584;2024-02-04T13:15:25;0.90;;;0.57;;
79249;SDS011;68679;51.030;7.584;2024-02-04T13:17:54;1.10;;;0.75;;
79249;SDS011;68679;51.030;7.584;2024-02-04T13:20:20;0.85;;;0.43;;
79249;SDS011;68679;51.030;7.584;2024-02-04T13:22:45;0.30;;;0.20;;
79249;SDS011;68679;51.030;7.584;2024-02-04T13:25:10;0.23;;;0.20;;
79249;SDS011;68679;51.030;7.584;2024-02-04T13:27:36;0.60;;;0.47;;
79249;SDS011;68679;51.030;7.584;2024-02-04T13:30:01;0.60;;;0.53;;
79249;SDS011;68679;51.030;7.584;2024-02-04T13:32:26;0.70;;;0.40;;
79249;SDS011;68679;51.030;7.584;2024-02-04T13:34:51;0.20;;;0.13;;
79249;SDS011;68679;51.030;7.584;2024-02-04T13:37:17;0.30;;;0.30;;
79249;SDS011;68679;51.030;7.584;2024-02-04T13:39:42;0.60;;;0.28;;
79249;SDS011;68679;51.030;7.584;2024-02-04T13:42:09;0.47;;;0.32;;
79249;SDS011;68679;51.030;7.584;2024-02-04T13:44:35;0.30;;;0.30;;
79249;SDS011;68679;51.030;7.584;2024-02-04T13:47:00;1.00;;;0.40;;
79249;SDS011;68679;51.030;7.584;2024-02-04T13:49:25;0.47;;;0.47;;
79249;SDS011;68679;51.030;7.584;2024-02-04T13:51:51;0.77;;;0.52;;
79249;SDS011;68679;51.030;7.584;2024-02-04T13:54:16;0.63;;;0.50;;
79249;SDS011;68679;51.030;7.584;2024-02-04T13:56:41;0.98;;;0.60;;
79249;SDS011;68679;51.030;7.584;2024-02-04T13:59:07;0.70;;;0.52;;
79249;SDS011;68679;51.030;7.584;2024-02-04T14:01:33;0.55;;;0.47;;
79249;SDS011;68679;51.030;7.584;2024-02-04T14:03:58;1.77;;;1.10;;
79249;SDS011;68679;51.030;7.584;2024-02-04T14:06:23;1.97;;;1.03;;
79249;SDS011;68679;51.030;7.584;2024-02-04T14:08:48;0.70;;;0.37;;
79249;SDS011;68679;51.030;7.584;2024-02-04T14:11:14;2.40;;;1.17;;
79249;SDS011;68679;51.030;7.584;2024-02-04T14:13:39;3.90;;;1.43;;
79249;SDS011;68679;51.030;7.584;2024-02-04T14:16:04;2.13;;;1.27;;
79249;SDS011;68679;51.030;7.584;2024-02-04T14:18:34;1.98;;;0.63;;
79249;SDS011;68679;51.030;7.584;2024-02-04T14:20:59;1.63;;;0.88;;
79249;SDS011;68679;51.030;7.584;2024-02-04T14:23:25;1.33;;;0.80;;
79249;SDS011;68679;51.030;7.584;2024-02-04T14:25:50;1.73;;;1.15;;
79249;SDS011;68679;51.030;7.584;2024-02-04T14:28:16;1.95;;;1.17;;
79249;SDS011;68679;51.030;7.584;2024-02-04T14:30:41;0.70;;;0.37;;
79249;SDS011;68679;51.030;7.584;2024-02-04T14:33:07;1.38;;;0.80;;
79249;SDS011;68679;51.030;7.584;2024-02-04T14:35:33;1.75;;;1.05;;
79249;SDS011;68679;51.030;7.584;2024-02-04T14:37:58;3.03;;;1.60;;
79249;SDS011;68679;51.030;7.584;2024-02-04T14:40:27;1.13;;;0.75;;
79249;SDS011;68679;51.030;7.584;2024-02-04T14:42:53;1.53;;;0.97;;
79249;SDS011;68679;51.030;7.584;2024-02-04T14:45:18;2.33;;;0.60;;
79249;SDS011;68679;51.030;7.584;2024-02-04T14:47:43;0.75;;;0.35;;